This is the latest recevied weather packets stored in our database for station/object N1ORT. If no packets are shown the sender has not sent any weather packets the latest 10 day(s).
| Time | Temp. | Humidity | Pressure | Rain* | Wind** | Luminosity | Snow |
|---|---|---|---|---|---|---|---|
| 1777924083 | 22.78° C | 30% | 1004.2 hPa | 0 mm | - | 652 W/m² | - |
| 1777923779 | 22.78° C | 30% | 1004.4 hPa | 0 mm | - | 651 W/m² | - |
| 1777923475 | 22.22° C | 29% | 1004.3 hPa | 0 mm | - | 662 W/m² | - |
| 1777923173 | 22.78° C | 28% | 1004.1 hPa | 0 mm | - | 672 W/m² | - |
| 1777922871 | 23.33° C | 28% | 1004.2 hPa | 0 mm | - | 692 W/m² | - |
| 1777922569 | 22.78° C | 30% | 1004.4 hPa | 0 mm | - | 708 W/m² | - |
| 1777922268 | 22.22° C | 29% | 1004.4 hPa | 0 mm | - | 745 W/m² | - |
| 1777921964 | 21.67° C | 30% | 1004.4 hPa | 0 mm | - | 656 W/m² | - |
| 1777921659 | 21.11° C | 30% | 1004.5 hPa | 0 mm | - | 783 W/m² | - |
| 1777921356 | 20.56° C | 30% | 1004.5 hPa | 0 mm | - | 189 W/m² | - |
| 1777921053 | 22.22° C | 29% | 1004.6 hPa | 0 mm | - | 637 W/m² | - |
| 1777920750 | 22.22° C | 32% | 1004.8 hPa | 0 mm | - | 809 W/m² | - |
| 1777920446 | 22.22° C | 31% | 1004.5 hPa | 0 mm | - | 815 W/m² | - |
| 1777920142 | 22.78° C | 29% | 1004.5 hPa | 0 mm | - | 853 W/m² | - |
| 1777919838 | 22.22° C | 32% | 1004.7 hPa | 0 mm | - | 834 W/m² | - |
| 1777919535 | 21.67° C | 30% | 1004.8 hPa | 0 mm | - | 831 W/m² | - |
| 1777919233 | 21.67° C | 29% | 1005 hPa | 0 mm | - | 850 W/m² | - |
| 1777918930 | 21.67° C | 32% | 1004.8 hPa | 0 mm | - | 842 W/m² | - |
| 1777918627 | 22.22° C | 29% | 1004.8 hPa | 0 mm | - | 846 W/m² | - |
| 1777918325 | 22.22° C | 28% | 1004.8 hPa | 0 mm | - | 857 W/m² | - |
| 1777918024 | 21.67° C | 31% | 1004.7 hPa | 0 mm | - | 865 W/m² | - |
| 1777917722 | 21.11° C | 31% | 1004.8 hPa | 0 mm | - | 871 W/m² | - |
| 1777917419 | 21.67° C | 29% | 1004.9 hPa | 0 mm | - | 879 W/m² | - |
| 1777917115 | 21.11° C | 32% | 1004.8 hPa | 0 mm | - | 888 W/m² | - |
| 1777916813 | 21.11° C | 30% | 1005 hPa | 0 mm | - | 894 W/m² | - |
* Rain latest hour (hover to see other rain measurements)
** Current wind speed in m/s (hover to see current wind gust speed)